sensor_id;sensor_type;location;lat;lon;timestamp;temperature;humidity
37794;DHT22;23632;48.826;15.176;2022-07-23T00:00:30;24.50;55.60
37794;DHT22;23632;48.826;15.176;2022-07-23T00:03:05;24.50;55.80
37794;DHT22;23632;48.826;15.176;2022-07-23T00:05:32;24.50;56.00
37794;DHT22;23632;48.826;15.176;2022-07-23T00:08:01;24.40;56.00
37794;DHT22;23632;48.826;15.176;2022-07-23T00:10:28;24.40;56.20
37794;DHT22;23632;48.826;15.176;2022-07-23T00:12:56;24.30;56.50
37794;DHT22;23632;48.826;15.176;2022-07-23T00:15:23;24.20;56.60
37794;DHT22;23632;48.826;15.176;2022-07-23T00:17:50;24.20;57.00
37794;DHT22;23632;48.826;15.176;2022-07-23T00:20:18;24.20;56.80
37794;DHT22;23632;48.826;15.176;2022-07-23T00:22:53;24.10;57.20
37794;DHT22;23632;48.826;15.176;2022-07-23T00:25:22;24.10;56.80
37794;DHT22;23632;48.826;15.176;2022-07-23T00:27:55;24.00;57.10
37794;DHT22;23632;48.826;15.176;2022-07-23T00:30:22;24.00;57.40
37794;DHT22;23632;48.826;15.176;2022-07-23T00:32:52;24.00;57.50
37794;DHT22;23632;48.826;15.176;2022-07-23T00:35:24;24.00;57.50
37794;DHT22;23632;48.826;15.176;2022-07-23T00:37:54;24.00;57.50
37794;DHT22;23632;48.826;15.176;2022-07-23T00:40:22;24.00;57.70
37794;DHT22;23632;48.826;15.176;2022-07-23T00:42:49;23.90;57.90
37794;DHT22;23632;48.826;15.176;2022-07-23T00:45:18;23.90;57.80
37794;DHT22;23632;48.826;15.176;2022-07-23T00:47:46;23.90;57.80
37794;DHT22;23632;48.826;15.176;2022-07-23T00:50:14;23.90;58.00
37794;DHT22;23632;48.826;15.176;2022-07-23T00:52:41;24.00;58.50
37794;DHT22;23632;48.826;15.176;2022-07-23T00:55:09;24.00;58.80
37794;DHT22;23632;48.826;15.176;2022-07-23T00:57:39;24.00;58.70
37794;DHT22;23632;48.826;15.176;2022-07-23T01:00:11;24.00;59.00
37794;DHT22;23632;48.826;15.176;2022-07-23T01:02:40;24.00;59.10
37794;DHT22;23632;48.826;15.176;2022-07-23T01:05:10;24.10;59.40
37794;DHT22;23632;48.826;15.176;2022-07-23T01:07:37;24.10;59.60
37794;DHT22;23632;48.826;15.176;2022-07-23T01:10:05;24.10;59.60
37794;DHT22;23632;48.826;15.176;2022-07-23T01:12:54;24.10;59.50
37794;DHT22;23632;48.826;15.176;2022-07-23T01:15:21;24.10;59.40
37794;DHT22;23632;48.826;15.176;2022-07-23T01:17:50;24.10;59.70
37794;DHT22;23632;48.826;15.176;2022-07-23T01:20:18;24.10;59.70
37794;DHT22;23632;48.826;15.176;2022-07-23T01:22:46;24.10;60.00
37794;DHT22;23632;48.826;15.176;2022-07-23T01:25:14;24.10;59.80
37794;DHT22;23632;48.826;15.176;2022-07-23T01:27:52;24.10;59.90
37794;DHT22;23632;48.826;15.176;2022-07-23T01:30:20;24.10;60.20
37794;DHT22;23632;48.826;15.176;2022-07-23T01:32:48;24.10;60.20
37794;DHT22;23632;48.826;15.176;2022-07-23T01:35:15;24.10;60.10
37794;DHT22;23632;48.826;15.176;2022-07-23T01:37:43;24.10;60.10
37794;DHT22;23632;48.826;15.176;2022-07-23T01:40:10;24.00;59.90
37794;DHT22;23632;48.826;15.176;2022-07-23T01:42:38;24.00;59.70
37794;DHT22;23632;48.826;15.176;2022-07-23T01:45:09;24.00;59.60
37794;DHT22;23632;48.826;15.176;2022-07-23T01:47:39;23.90;59.80
37794;DHT22;23632;48.826;15.176;2022-07-23T01:50:07;23.90;60.00
37794;DHT22;23632;48.826;15.176;2022-07-23T01:52:43;23.80;59.80
37794;DHT22;23632;48.826;15.176;2022-07-23T01:55:10;23.80;59.80
37794;DHT22;23632;48.826;15.176;2022-07-23T01:57:46;23.70;59.50
37794;DHT22;23632;48.826;15.176;2022-07-23T02:00:16;23.60;60.50
37794;DHT22;23632;48.826;15.176;2022-07-23T02:02:47;23.60;59.50
37794;DHT22;23632;48.826;15.176;2022-07-23T02:05:14;23.60;59.90
37794;DHT22;23632;48.826;15.176;2022-07-23T02:07:41;23.60;60.00
37794;DHT22;23632;48.826;15.176;2022-07-23T02:10:09;23.50;60.00
37794;DHT22;23632;48.826;15.176;2022-07-23T02:12:37;23.50;60.00
37794;DHT22;23632;48.826;15.176;2022-07-23T02:15:06;23.40;60.30
37794;DHT22;23632;48.826;15.176;2022-07-23T02:17:36;23.40;59.90
37794;DHT22;23632;48.826;15.176;2022-07-23T02:20:05;23.40;60.00
37794;DHT22;23632;48.826;15.176;2022-07-23T02:22:33;23.30;60.10
37794;DHT22;23632;48.826;15.176;2022-07-23T02:25:01;23.30;61.20
37794;DHT22;23632;48.826;15.176;2022-07-23T02:27:30;23.20;60.30
37794;DHT22;23632;48.826;15.176;2022-07-23T02:29:57;23.20;60.30
37794;DHT22;23632;48.826;15.176;2022-07-23T02:32:25;23.10;60.50
37794;DHT22;23632;48.826;15.176;2022-07-23T02:34:52;23.10;60.70
37794;DHT22;23632;48.826;15.176;2022-07-23T02:37:20;23.00;60.80
37794;DHT22;23632;48.826;15.176;2022-07-23T02:39:47;22.90;61.00
37794;DHT22;23632;48.826;15.176;2022-07-23T02:42:16;22.80;61.30
37794;DHT22;23632;48.826;15.176;2022-07-23T02:44:44;22.80;61.40
37794;DHT22;23632;48.826;15.176;2022-07-23T02:47:11;22.70;61.30
37794;DHT22;23632;48.826;15.176;2022-07-23T02:49:38;22.70;61.50
37794;DHT22;23632;48.826;15.176;2022-07-23T02:52:07;22.70;61.70
37794;DHT22;23632;48.826;15.176;2022-07-23T02:54:37;22.70;61.70
37794;DHT22;23632;48.826;15.176;2022-07-23T02:57:05;22.70;61.90
37794;DHT22;23632;48.826;15.176;2022-07-23T02:59:32;22.80;62.10
37794;DHT22;23632;48.826;15.176;2022-07-23T03:02:00;22.90;62.20
37794;DHT22;23632;48.826;15.176;2022-07-23T03:04:29;23.00;62.10
37794;DHT22;23632;48.826;15.176;2022-07-23T03:06:56;23.10;62.20
37794;DHT22;23632;48.826;15.176;2022-07-23T03:09:24;23.10;62.10
37794;DHT22;23632;48.826;15.176;2022-07-23T03:11:52;23.20;62.10
37794;DHT22;23632;48.826;15.176;2022-07-23T03:14:19;23.20;63.00
37794;DHT22;23632;48.826;15.176;2022-07-23T03:16:46;23.20;62.10
37794;DHT22;23632;48.826;15.176;2022-07-23T03:19:16;23.20;62.10
37794;DHT22;23632;48.826;15.176;2022-07-23T03:21:43;23.30;62.30
37794;DHT22;23632;48.826;15.176;2022-07-23T03:24:11;23.20;62.20
37794;DHT22;23632;48.826;15.176;2022-07-23T03:26:38;23.30;62.10
37794;DHT22;23632;48.826;15.176;2022-07-23T03:29:07;23.30;62.10
37794;DHT22;23632;48.826;15.176;2022-07-23T03:31:34;23.30;61.80
37794;DHT22;23632;48.826;15.176;2022-07-23T03:34:02;23.30;62.40
37794;DHT22;23632;48.826;15.176;2022-07-23T03:36:29;23.30;62.30
37794;DHT22;23632;48.826;15.176;2022-07-23T03:38:57;23.40;62.20
37794;DHT22;23632;48.826;15.176;2022-07-23T03:41:27;23.40;62.00
37794;DHT22;23632;48.826;15.176;2022-07-23T03:43:57;23.40;61.80
37794;DHT22;23632;48.826;15.176;2022-07-23T03:46:27;23.50;62.00
37794;DHT22;23632;48.826;15.176;2022-07-23T03:48:54;23.50;62.10
37794;DHT22;23632;48.826;15.176;2022-07-23T03:51:25;23.60;62.00
37794;DHT22;23632;48.826;15.176;2022-07-23T03:53:52;23.60;62.00
37794;DHT22;23632;48.826;15.176;2022-07-23T03:56:21;23.70;62.20
37794;DHT22;23632;48.826;15.176;2022-07-23T03:58:49;23.70;62.60
37794;DHT22;23632;48.826;15.176;2022-07-23T04:01:17;23.70;62.60
37794;DHT22;23632;48.826;15.176;2022-07-23T04:03:44;23.80;62.80
37794;DHT22;23632;48.826;15.176;2022-07-23T04:06:13;23.80;63.00
37794;DHT22;23632;48.826;15.176;2022-07-23T04:08:41;23.90;63.50
37794;DHT22;23632;48.826;15.176;2022-07-23T04:11:09;23.90;63.50
37794;DHT22;23632;48.826;15.176;2022-07-23T04:13:36;24.00;63.50
37794;DHT22;23632;48.826;15.176;2022-07-23T04:16:04;24.00;63.30
37794;DHT22;23632;48.826;15.176;2022-07-23T04:18:32;24.10;63.30
37794;DHT22;23632;48.826;15.176;2022-07-23T04:21:06;24.10;63.30
37794;DHT22;23632;48.826;15.176;2022-07-23T04:23:35;24.10;63.00
37794;DHT22;23632;48.826;15.176;2022-07-23T04:26:02;24.10;63.20
37794;DHT22;23632;48.826;15.176;2022-07-23T04:28:31;24.20;63.40
37794;DHT22;23632;48.826;15.176;2022-07-23T04:31:00;24.20;63.50
37794;DHT22;23632;48.826;15.176;2022-07-23T04:33:29;24.20;63.60
37794;DHT22;23632;48.826;15.176;2022-07-23T04:35:58;24.10;63.80
37794;DHT22;23632;48.826;15.176;2022-07-23T04:38:25;24.20;64.10
37794;DHT22;23632;48.826;15.176;2022-07-23T04:40:57;24.20;64.00
37794;DHT22;23632;48.826;15.176;2022-07-23T04:43:25;24.20;64.20
37794;DHT22;23632;48.826;15.176;2022-07-23T04:45:53;24.20;64.00
37794;DHT22;23632;48.826;15.176;2022-07-23T04:48:21;24.30;64.00
37794;DHT22;23632;48.826;15.176;2022-07-23T04:50:58;24.40;64.40
37794;DHT22;23632;48.826;15.176;2022-07-23T04:53:28;24.50;64.40
37794;DHT22;23632;48.826;15.176;2022-07-23T04:55:59;24.50;64.50
37794;DHT22;23632;48.826;15.176;2022-07-23T04:58:29;24.60;64.30
37794;DHT22;23632;48.826;15.176;2022-07-23T05:00:57;24.60;64.50
37794;DHT22;23632;48.826;15.176;2022-07-23T05:03:26;24.70;65.50
37794;DHT22;23632;48.826;15.176;2022-07-23T05:05:53;24.80;65.50
37794;DHT22;23632;48.826;15.176;2022-07-23T05:08:20;24.80;65.80
37794;DHT22;23632;48.826;15.176;2022-07-23T05:10:54;24.90;65.70
37794;DHT22;23632;48.826;15.176;2022-07-23T05:13:21;25.00;65.50
37794;DHT22;23632;48.826;15.176;2022-07-23T05:15:53;25.10;65.30
37794;DHT22;23632;48.826;15.176;2022-07-23T05:18:20;25.10;65.10
37794;DHT22;23632;48.826;15.176;2022-07-23T05:20:48;25.30;65.40
37794;DHT22;23632;48.826;15.176;2022-07-23T05:23:18;25.40;65.20
37794;DHT22;23632;48.826;15.176;2022-07-23T05:25:47;25.40;65.10
37794;DHT22;23632;48.826;15.176;2022-07-23T05:28:15;25.60;64.90
37794;DHT22;23632;48.826;15.176;2022-07-23T05:30:49;25.60;64.80
37794;DHT22;23632;48.826;15.176;2022-07-23T05:33:20;25.70;64.60
37794;DHT22;23632;48.826;15.176;2022-07-23T05:35:48;25.90;64.30
37794;DHT22;23632;48.826;15.176;2022-07-23T05:38:26;26.00;64.20
37794;DHT22;23632;48.826;15.176;2022-07-23T05:40:56;26.10;64.00
37794;DHT22;23632;48.826;15.176;2022-07-23T05:43:23;26.30;63.90
37794;DHT22;23632;48.826;15.176;2022-07-23T05:45:52;26.40;63.70
37794;DHT22;23632;48.826;15.176;2022-07-23T05:48:21;26.50;63.70
37794;DHT22;23632;48.826;15.176;2022-07-23T05:51:03;26.60;63.50
37794;DHT22;23632;48.826;15.176;2022-07-23T05:53:34;26.70;63.20
37794;DHT22;23632;48.826;15.176;2022-07-23T05:56:30;26.80;63.20
37794;DHT22;23632;48.826;15.176;2022-07-23T05:59:00;26.90;62.80
37794;DHT22;23632;48.826;15.176;2022-07-23T06:01:30;27.00;62.70
37794;DHT22;23632;48.826;15.176;2022-07-23T06:04:05;27.10;62.60
37794;DHT22;23632;48.826;15.176;2022-07-23T06:06:36;27.20;62.40
37794;DHT22;23632;48.826;15.176;2022-07-23T06:09:06;27.30;62.20
37794;DHT22;23632;48.826;15.176;2022-07-23T06:11:34;27.30;61.80
37794;DHT22;23632;48.826;15.176;2022-07-23T06:14:01;27.40;61.90
37794;DHT22;23632;48.826;15.176;2022-07-23T06:16:43;27.40;61.80
37794;DHT22;23632;48.826;15.176;2022-07-23T06:19:10;27.40;61.70
37794;DHT22;23632;48.826;15.176;2022-07-23T06:21:38;27.40;61.30
37794;DHT22;23632;48.826;15.176;2022-07-23T06:24:15;27.40;61.20
37794;DHT22;23632;48.826;15.176;2022-07-23T06:26:42;27.40;60.90
37794;DHT22;23632;48.826;15.176;2022-07-23T06:29:09;27.40;60.60
37794;DHT22;23632;48.826;15.176;2022-07-23T06:31:37;27.40;60.60
37794;DHT22;23632;48.826;15.176;2022-07-23T06:34:04;27.30;60.30
37794;DHT22;23632;48.826;15.176;2022-07-23T06:36:31;27.30;60.50
37794;DHT22;23632;48.826;15.176;2022-07-23T06:38:58;27.20;60.50
37794;DHT22;23632;48.826;15.176;2022-07-23T06:41:26;27.20;60.70
37794;DHT22;23632;48.826;15.176;2022-07-23T06:43:55;27.20;60.70
37794;DHT22;23632;48.826;15.176;2022-07-23T06:46:22;27.20;60.70
37794;DHT22;23632;48.826;15.176;2022-07-23T06:48:50;27.20;60.90
37794;DHT22;23632;48.826;15.176;2022-07-23T06:51:17;27.30;61.00
37794;DHT22;23632;48.826;15.176;2022-07-23T06:53:45;27.40;61.00
37794;DHT22;23632;48.826;15.176;2022-07-23T06:56:12;27.50;60.60
37794;DHT22;23632;48.826;15.176;2022-07-23T06:58:39;27.70;60.50
37794;DHT22;23632;48.826;15.176;2022-07-23T07:01:07;27.70;60.10
37794;DHT22;23632;48.826;15.176;2022-07-23T07:03:34;27.90;60.00
37794;DHT22;23632;48.826;15.176;2022-07-23T07:06:01;27.90;59.80
37794;DHT22;23632;48.826;15.176;2022-07-23T07:08:29;28.00;60.00
37794;DHT22;23632;48.826;15.176;2022-07-23T07:10:56;28.10;59.70
37794;DHT22;23632;48.826;15.176;2022-07-23T07:13:23;28.10;59.40
37794;DHT22;23632;48.826;15.176;2022-07-23T07:15:50;28.10;59.10
37794;DHT22;23632;48.826;15.176;2022-07-23T07:18:17;28.20;59.40
37794;DHT22;23632;48.826;15.176;2022-07-23T07:20:45;28.20;59.20
37794;DHT22;23632;48.826;15.176;2022-07-23T07:23:12;28.20;59.40
37794;DHT22;23632;48.826;15.176;2022-07-23T07:25:42;28.30;59.40
37794;DHT22;23632;48.826;15.176;2022-07-23T07:28:09;28.40;59.40
37794;DHT22;23632;48.826;15.176;2022-07-23T07:30:36;28.40;58.90
37794;DHT22;23632;48.826;15.176;2022-07-23T07:33:03;28.50;59.10
37794;DHT22;23632;48.826;15.176;2022-07-23T07:35:30;28.50;58.60
37794;DHT22;23632;48.826;15.176;2022-07-23T07:38:01;28.50;58.60
37794;DHT22;23632;48.826;15.176;2022-07-23T07:40:28;28.50;58.70
37794;DHT22;23632;48.826;15.176;2022-07-23T07:43:00;28.50;58.40
37794;DHT22;23632;48.826;15.176;2022-07-23T07:45:28;28.40;58.40
37794;DHT22;23632;48.826;15.176;2022-07-23T07:47:56;28.40;58.60
37794;DHT22;23632;48.826;15.176;2022-07-23T07:50:24;28.40;58.50
37794;DHT22;23632;48.826;15.176;2022-07-23T07:52:51;28.30;58.60
37794;DHT22;23632;48.826;15.176;2022-07-23T07:55:19;28.30;58.70
37794;DHT22;23632;48.826;15.176;2022-07-23T07:57:46;28.30;58.80
37794;DHT22;23632;48.826;15.176;2022-07-23T08:00:15;28.30;59.00
37794;DHT22;23632;48.826;15.176;2022-07-23T08:05:14;28.30;59.00
37794;DHT22;23632;48.826;15.176;2022-07-23T08:07:41;28.30;59.20
37794;DHT22;23632;48.826;15.176;2022-07-23T08:10:09;28.30;59.40
37794;DHT22;23632;48.826;15.176;2022-07-23T08:12:44;28.30;59.60
37794;DHT22;23632;48.826;15.176;2022-07-23T08:15:17;28.40;60.00
37794;DHT22;23632;48.826;15.176;2022-07-23T08:17:47;28.40;60.10
37794;DHT22;23632;48.826;15.176;2022-07-23T08:20:17;28.40;60.00
37794;DHT22;23632;48.826;15.176;2022-07-23T08:22:49;28.40;60.10
37794;DHT22;23632;48.826;15.176;2022-07-23T08:25:23;28.50;60.10
37794;DHT22;23632;48.826;15.176;2022-07-23T08:27:52;28.50;59.90
37794;DHT22;23632;48.826;15.176;2022-07-23T08:30:20;28.50;60.90
37794;DHT22;23632;48.826;15.176;2022-07-23T08:32:58;28.50;60.10
37794;DHT22;23632;48.826;15.176;2022-07-23T08:35:35;28.50;60.10
37794;DHT22;23632;48.826;15.176;2022-07-23T08:38:08;28.50;60.10
37794;DHT22;23632;48.826;15.176;2022-07-23T08:40:39;28.40;60.00
37794;DHT22;23632;48.826;15.176;2022-07-23T08:43:12;28.30;60.10
37794;DHT22;23632;48.826;15.176;2022-07-23T08:45:44;28.20;60.20
37794;DHT22;23632;48.826;15.176;2022-07-23T08:48:17;28.10;60.70
37794;DHT22;23632;48.826;15.176;2022-07-23T08:50:48;28.10;61.40
37794;DHT22;23632;48.826;15.176;2022-07-23T08:53:18;28.10;60.90
37794;DHT22;23632;48.826;15.176;2022-07-23T08:55:47;28.10;60.70
37794;DHT22;23632;48.826;15.176;2022-07-23T08:58:16;28.10;60.80
37794;DHT22;23632;48.826;15.176;2022-07-23T09:00:45;28.10;61.00
37794;DHT22;23632;48.826;15.176;2022-07-23T09:03:18;28.20;61.00
37794;DHT22;23632;48.826;15.176;2022-07-23T09:05:51;28.20;61.10
37794;DHT22;23632;48.826;15.176;2022-07-23T09:08:23;28.30;60.80
37794;DHT22;23632;48.826;15.176;2022-07-23T09:11:00;28.40;61.00
37794;DHT22;23632;48.826;15.176;2022-07-23T09:16:34;28.40;59.90
37794;DHT22;23632;48.826;15.176;2022-07-23T09:19:06;28.40;60.20
37794;DHT22;23632;48.826;15.176;2022-07-23T09:21:35;28.40;60.10
37794;DHT22;23632;48.826;15.176;2022-07-23T09:24:10;28.40;60.20
37794;DHT22;23632;48.826;15.176;2022-07-23T09:26:43;28.30;60.20
37794;DHT22;23632;48.826;15.176;2022-07-23T09:29:34;28.30;60.10
37794;DHT22;23632;48.826;15.176;2022-07-23T09:32:01;28.40;60.20
37794;DHT22;23632;48.826;15.176;2022-07-23T09:34:36;28.40;60.10
37794;DHT22;23632;48.826;15.176;2022-07-23T09:37:17;28.50;60.00
37794;DHT22;23632;48.826;15.176;2022-07-23T09:39:48;28.50;60.00
37794;DHT22;23632;48.826;15.176;2022-07-23T09:42:20;28.50;60.00
37794;DHT22;23632;48.826;15.176;2022-07-23T09:44:51;28.60;60.30
37794;DHT22;23632;48.826;15.176;2022-07-23T09:47:24;28.60;59.90
37794;DHT22;23632;48.826;15.176;2022-07-23T09:50:08;28.60;59.90
37794;DHT22;23632;48.826;15.176;2022-07-23T09:52:46;28.60;59.80
37794;DHT22;23632;48.826;15.176;2022-07-23T09:55:17;28.60;60.00
37794;DHT22;23632;48.826;15.176;2022-07-23T09:57:46;28.70;60.30
37794;DHT22;23632;48.826;15.176;2022-07-23T10:00:17;28.70;60.40
37794;DHT22;23632;48.826;15.176;2022-07-23T10:02:47;28.80;60.20
37794;DHT22;23632;48.826;15.176;2022-07-23T10:05:29;28.80;60.10
37794;DHT22;23632;48.826;15.176;2022-07-23T10:08:17;28.90;60.40
37794;DHT22;23632;48.826;15.176;2022-07-23T10:11:04;28.90;60.10
37794;DHT22;23632;48.826;15.176;2022-07-23T10:13:51;29.00;60.00
37794;DHT22;23632;48.826;15.176;2022-07-23T10:16:44;29.10;60.10
37794;DHT22;23632;48.826;15.176;2022-07-23T10:19:11;29.10;60.00
37794;DHT22;23632;48.826;15.176;2022-07-23T10:21:46;29.20;60.00
37794;DHT22;23632;48.826;15.176;2022-07-23T10:26:58;29.30;58.90
37794;DHT22;23632;48.826;15.176;2022-07-23T10:29:42;29.30;58.30
37794;DHT22;23632;48.826;15.176;2022-07-23T10:40:36;29.40;57.00
37794;DHT22;23632;48.826;15.176;2022-07-23T10:43:13;29.50;57.40
37794;DHT22;23632;48.826;15.176;2022-07-23T10:45:47;29.50;57.30
37794;DHT22;23632;48.826;15.176;2022-07-23T10:48:20;29.60;57.50
37794;DHT22;23632;48.826;15.176;2022-07-23T10:51:13;29.70;56.30
37794;DHT22;23632;48.826;15.176;2022-07-23T10:54:20;29.90;57.10
37794;DHT22;23632;48.826;15.176;2022-07-23T10:59:23;30.10;55.60
37794;DHT22;23632;48.826;15.176;2022-07-23T11:01:50;30.10;54.70
37794;DHT22;23632;48.826;15.176;2022-07-23T11:04:18;30.10;54.90
37794;DHT22;23632;48.826;15.176;2022-07-23T11:09:26;30.20;54.80
37794;DHT22;23632;48.826;15.176;2022-07-23T11:15:13;30.30;52.60
37794;DHT22;23632;48.826;15.176;2022-07-23T11:20:20;30.40;51.70
37794;DHT22;23632;48.826;15.176;2022-07-23T11:22:51;30.50;49.40
37794;DHT22;23632;48.826;15.176;2022-07-23T11:27:55;30.50;49.60
37794;DHT22;23632;48.826;15.176;2022-07-23T11:35:37;30.80;50.50
37794;DHT22;23632;48.826;15.176;2022-07-23T11:38:21;31.00;50.30
37794;DHT22;23632;48.826;15.176;2022-07-23T11:40:55;31.10;50.00
37794;DHT22;23632;48.826;15.176;2022-07-23T11:43:25;31.30;48.10
37794;DHT22;23632;48.826;15.176;2022-07-23T11:45:58;31.50;49.80
37794;DHT22;23632;48.826;15.176;2022-07-23T11:48:28;31.70;49.00
37794;DHT22;23632;48.826;15.176;2022-07-23T11:51:02;31.80;48.40
37794;DHT22;23632;48.826;15.176;2022-07-23T11:53:33;31.90;47.70
37794;DHT22;23632;48.826;15.176;2022-07-23T11:58:33;32.10;48.70
37794;DHT22;23632;48.826;15.176;2022-07-23T12:01:01;32.10;47.50
37794;DHT22;23632;48.826;15.176;2022-07-23T12:03:28;32.10;47.20
37794;DHT22;23632;48.826;15.176;2022-07-23T12:05:59;32.00;48.60
37794;DHT22;23632;48.826;15.176;2022-07-23T12:08:30;32.10;48.70
37794;DHT22;23632;48.826;15.176;2022-07-23T12:10:58;32.10;48.50
37794;DHT22;23632;48.826;15.176;2022-07-23T12:13:25;32.20;48.70
37794;DHT22;23632;48.826;15.176;2022-07-23T12:15:56;32.20;48.10
37794;DHT22;23632;48.826;15.176;2022-07-23T12:18:25;32.30;48.00
37794;DHT22;23632;48.826;15.176;2022-07-23T12:20:56;32.40;48.90
37794;DHT22;23632;48.826;15.176;2022-07-23T12:23:26;32.60;48.20
37794;DHT22;23632;48.826;15.176;2022-07-23T12:25:54;32.80;46.60
37794;DHT22;23632;48.826;15.176;2022-07-23T12:28:29;33.00;45.80
37794;DHT22;23632;48.826;15.176;2022-07-23T12:31:00;33.20;46.10
37794;DHT22;23632;48.826;15.176;2022-07-23T12:33:37;33.40;45.90
37794;DHT22;23632;48.826;15.176;2022-07-23T12:36:08;33.70;45.90
37794;DHT22;23632;48.826;15.176;2022-07-23T12:38:40;34.00;45.40
37794;DHT22;23632;48.826;15.176;2022-07-23T12:41:14;34.30;44.70
37794;DHT22;23632;48.826;15.176;2022-07-23T12:43:44;34.60;45.20
37794;DHT22;23632;48.826;15.176;2022-07-23T12:46:22;34.90;43.70
37794;DHT22;23632;48.826;15.176;2022-07-23T12:48:54;35.20;44.10
37794;DHT22;23632;48.826;15.176;2022-07-23T12:51:30;35.60;43.80
37794;DHT22;23632;48.826;15.176;2022-07-23T12:54:07;35.90;40.80
37794;DHT22;23632;48.826;15.176;2022-07-23T12:56:38;36.30;43.10
37794;DHT22;23632;48.826;15.176;2022-07-23T12:59:10;36.70;40.50
37794;DHT22;23632;48.826;15.176;2022-07-23T13:01:40;37.00;41.10
37794;DHT22;23632;48.826;15.176;2022-07-23T13:04:19;37.40;41.10
37794;DHT22;23632;48.826;15.176;2022-07-23T13:06:56;37.90;41.10
37794;DHT22;23632;48.826;15.176;2022-07-23T13:09:32;38.40;37.90
37794;DHT22;23632;48.826;15.176;2022-07-23T13:12:08;38.80;38.80
37794;DHT22;23632;48.826;15.176;2022-07-23T13:14:37;39.20;37.70
37794;DHT22;23632;48.826;15.176;2022-07-23T13:17:05;39.30;36.50
37794;DHT22;23632;48.826;15.176;2022-07-23T13:19:33;39.20;36.40
37794;DHT22;23632;48.826;15.176;2022-07-23T13:22:01;39.10;36.90
37794;DHT22;23632;48.826;15.176;2022-07-23T13:24:34;39.00;36.20
37794;DHT22;23632;48.826;15.176;2022-07-23T13:27:05;38.80;36.20
37794;DHT22;23632;48.826;15.176;2022-07-23T13:29:37;38.40;36.40
37794;DHT22;23632;48.826;15.176;2022-07-23T13:32:04;38.00;36.80
37794;DHT22;23632;48.826;15.176;2022-07-23T13:34:52;37.70;37.30
37794;DHT22;23632;48.826;15.176;2022-07-23T13:37:18;37.20;37.50
37794;DHT22;23632;48.826;15.176;2022-07-23T13:39:46;36.80;37.70
37794;DHT22;23632;48.826;15.176;2022-07-23T13:42:13;36.20;38.00
37794;DHT22;23632;48.826;15.176;2022-07-23T13:44:40;35.70;38.40
37794;DHT22;23632;48.826;15.176;2022-07-23T13:47:08;35.20;39.30
37794;DHT22;23632;48.826;15.176;2022-07-23T13:49:35;34.80;39.60
37794;DHT22;23632;48.826;15.176;2022-07-23T13:52:03;34.50;40.00
37794;DHT22;23632;48.826;15.176;2022-07-23T13:54:34;34.40;41.10
37794;DHT22;23632;48.826;15.176;2022-07-23T13:57:01;34.50;42.10
37794;DHT22;23632;48.826;15.176;2022-07-23T13:59:29;34.90;41.70
37794;DHT22;23632;48.826;15.176;2022-07-23T14:01:56;35.40;41.30
37794;DHT22;23632;48.826;15.176;2022-07-23T14:04:44;36.00;41.30
37794;DHT22;23632;48.826;15.176;2022-07-23T14:07:11;36.70;40.20
37794;DHT22;23632;48.826;15.176;2022-07-23T14:09:38;37.40;37.40
37794;DHT22;23632;48.826;15.176;2022-07-23T14:12:07;38.00;37.10
37794;DHT22;23632;48.826;15.176;2022-07-23T14:14:37;38.30;36.60
37794;DHT22;23632;48.826;15.176;2022-07-23T14:17:04;38.70;36.60
37794;DHT22;23632;48.826;15.176;2022-07-23T14:19:33;39.10;35.90
37794;DHT22;23632;48.826;15.176;2022-07-23T14:22:01;39.40;35.20
37794;DHT22;23632;48.826;15.176;2022-07-23T14:24:28;39.70;35.30
37794;DHT22;23632;48.826;15.176;2022-07-23T14:27:03;40.00;35.50
37794;DHT22;23632;48.826;15.176;2022-07-23T14:29:31;40.40;32.50
37794;DHT22;23632;48.826;15.176;2022-07-23T14:32:00;40.50;33.40
37794;DHT22;23632;48.826;15.176;2022-07-23T14:34:29;40.40;33.40
37794;DHT22;23632;48.826;15.176;2022-07-23T14:36:57;40.30;33.70
37794;DHT22;23632;48.826;15.176;2022-07-23T14:39:24;40.20;33.40
37794;DHT22;23632;48.826;15.176;2022-07-23T14:41:53;40.00;34.00
37794;DHT22;23632;48.826;15.176;2022-07-23T14:44:20;39.80;33.50
37794;DHT22;23632;48.826;15.176;2022-07-23T14:46:48;39.80;34.10
37794;DHT22;23632;48.826;15.176;2022-07-23T14:49:15;39.80;33.30
37794;DHT22;23632;48.826;15.176;2022-07-23T14:51:43;39.90;32.60
37794;DHT22;23632;48.826;15.176;2022-07-23T14:54:11;40.10;33.40
37794;DHT22;23632;48.826;15.176;2022-07-23T14:56:43;40.30;32.50
37794;DHT22;23632;48.826;15.176;2022-07-23T14:59:11;40.50;31.40
37794;DHT22;23632;48.826;15.176;2022-07-23T15:01:38;40.60;31.40
37794;DHT22;23632;48.826;15.176;2022-07-23T15:04:06;40.60;31.60
37794;DHT22;23632;48.826;15.176;2022-07-23T15:06:53;40.60;32.80
37794;DHT22;23632;48.826;15.176;2022-07-23T15:09:21;40.50;31.40
37794;DHT22;23632;48.826;15.176;2022-07-23T15:11:48;40.20;31.30
37794;DHT22;23632;48.826;15.176;2022-07-23T15:14:16;40.10;31.90
37794;DHT22;23632;48.826;15.176;2022-07-23T15:16:53;40.00;32.20
37794;DHT22;23632;48.826;15.176;2022-07-23T15:19:21;40.10;32.00
37794;DHT22;23632;48.826;15.176;2022-07-23T15:21:48;40.20;32.00
37794;DHT22;23632;48.826;15.176;2022-07-23T15:24:16;40.30;32.20
37794;DHT22;23632;48.826;15.176;2022-07-23T15:26:43;40.40;31.00
37794;DHT22;23632;48.826;15.176;2022-07-23T15:29:12;40.50;31.80
37794;DHT22;23632;48.826;15.176;2022-07-23T15:31:39;40.50;31.60
37794;DHT22;23632;48.826;15.176;2022-07-23T15:34:08;40.60;31.50
37794;DHT22;23632;48.826;15.176;2022-07-23T15:36:36;40.60;31.60
37794;DHT22;23632;48.826;15.176;2022-07-23T15:39:03;40.80;30.90
37794;DHT22;23632;48.826;15.176;2022-07-23T15:41:32;40.80;30.90
37794;DHT22;23632;48.826;15.176;2022-07-23T15:43:59;40.70;31.00
37794;DHT22;23632;48.826;15.176;2022-07-23T15:46:47;40.60;30.60
37794;DHT22;23632;48.826;15.176;2022-07-23T15:49:14;40.30;30.80
37794;DHT22;23632;48.826;15.176;2022-07-23T15:51:45;39.90;30.70
37794;DHT22;23632;48.826;15.176;2022-07-23T15:54:13;39.50;31.30
37794;DHT22;23632;48.826;15.176;2022-07-23T15:56:42;39.00;31.70
37794;DHT22;23632;48.826;15.176;2022-07-23T15:59:09;38.70;32.20
37794;DHT22;23632;48.826;15.176;2022-07-23T16:01:37;38.50;32.70
37794;DHT22;23632;48.826;15.176;2022-07-23T16:04:05;38.30;33.00
37794;DHT22;23632;48.826;15.176;2022-07-23T16:06:33;38.40;33.00
37794;DHT22;23632;48.826;15.176;2022-07-23T16:09:00;38.50;33.10
37794;DHT22;23632;48.826;15.176;2022-07-23T16:11:31;38.80;33.40